sensor_id;sensor_type;location;lat;lon;timestamp;temperature;humidity
39021;DHT22;25188;51.958;5.842;2023-05-10T00:00:24;14.20;99.90
39021;DHT22;25188;51.958;5.842;2023-05-10T00:02:49;14.20;99.90
39021;DHT22;25188;51.958;5.842;2023-05-10T00:05:15;14.20;99.90
39021;DHT22;25188;51.958;5.842;2023-05-10T00:07:41;14.20;99.90
39021;DHT22;25188;51.958;5.842;2023-05-10T00:10:10;14.20;99.90
39021;DHT22;25188;51.958;5.842;2023-05-10T00:12:36;14.20;99.90
39021;DHT22;25188;51.958;5.842;2023-05-10T00:15:02;14.20;99.90
39021;DHT22;25188;51.958;5.842;2023-05-10T00:17:28;14.20;99.90
39021;DHT22;25188;51.958;5.842;2023-05-10T00:19:54;14.20;99.90
39021;DHT22;25188;51.958;5.842;2023-05-10T00:22:20;14.20;99.90
39021;DHT22;25188;51.958;5.842;2023-05-10T00:24:46;14.20;99.90
39021;DHT22;25188;51.958;5.842;2023-05-10T00:27:11;14.10;99.90
39021;DHT22;25188;51.958;5.842;2023-05-10T00:29:37;14.10;99.90
39021;DHT22;25188;51.958;5.842;2023-05-10T00:32:03;14.10;99.90
39021;DHT22;25188;51.958;5.842;2023-05-10T00:34:28;14.10;99.90
39021;DHT22;25188;51.958;5.842;2023-05-10T00:36:54;14.10;99.90
39021;DHT22;25188;51.958;5.842;2023-05-10T00:39:20;14.10;99.90
39021;DHT22;25188;51.958;5.842;2023-05-10T00:41:45;14.10;99.90
39021;DHT22;25188;51.958;5.842;2023-05-10T00:44:11;14.10;99.90
39021;DHT22;25188;51.958;5.842;2023-05-10T00:46:37;14.20;99.90
39021;DHT22;25188;51.958;5.842;2023-05-10T00:49:03;14.20;99.90
39021;DHT22;25188;51.958;5.842;2023-05-10T00:51:29;14.10;99.90
39021;DHT22;25188;51.958;5.842;2023-05-10T00:53:56;14.10;99.90
39021;DHT22;25188;51.958;5.842;2023-05-10T00:56:22;14.20;99.90
39021;DHT22;25188;51.958;5.842;2023-05-10T00:58:49;14.20;99.90
39021;DHT22;25188;51.958;5.842;2023-05-10T01:01:15;14.20;99.90
39021;DHT22;25188;51.958;5.842;2023-05-10T01:03:41;14.20;99.90
39021;DHT22;25188;51.958;5.842;2023-05-10T01:06:07;14.20;99.90
39021;DHT22;25188;51.958;5.842;2023-05-10T01:08:33;14.20;99.90
39021;DHT22;25188;51.958;5.842;2023-05-10T01:10:59;14.20;99.90
39021;DHT22;25188;51.958;5.842;2023-05-10T01:13:38;14.30;99.90
39021;DHT22;25188;51.958;5.842;2023-05-10T01:16:06;14.30;99.90
39021;DHT22;25188;51.958;5.842;2023-05-10T01:18:41;14.30;99.90
39021;DHT22;25188;51.958;5.842;2023-05-10T01:21:10;14.30;99.90
39021;DHT22;25188;51.958;5.842;2023-05-10T01:26:39;14.30;99.90
39021;DHT22;25188;51.958;5.842;2023-05-10T01:29:24;14.30;99.90
39021;DHT22;25188;51.958;5.842;2023-05-10T01:35:10;14.20;99.90
39021;DHT22;25188;51.958;5.842;2023-05-10T01:37:59;14.20;99.90
39021;DHT22;25188;51.958;5.842;2023-05-10T01:40:35;14.20;99.90
39021;DHT22;25188;51.958;5.842;2023-05-10T01:43:11;14.20;99.90
39021;DHT22;25188;51.958;5.842;2023-05-10T01:48:11;14.20;99.90
39021;DHT22;25188;51.958;5.842;2023-05-10T01:50:42;14.20;99.90
39021;DHT22;25188;51.958;5.842;2023-05-10T01:53:10;14.20;99.90
39021;DHT22;25188;51.958;5.842;2023-05-10T01:55:51;14.20;99.90
39021;DHT22;25188;51.958;5.842;2023-05-10T01:58:28;14.20;99.90
39021;DHT22;25188;51.958;5.842;2023-05-10T02:00:55;14.20;99.90
39021;DHT22;25188;51.958;5.842;2023-05-10T02:03:24;14.20;99.90
39021;DHT22;25188;51.958;5.842;2023-05-10T02:05:52;14.20;99.90
39021;DHT22;25188;51.958;5.842;2023-05-10T02:08:19;14.20;99.90
39021;DHT22;25188;51.958;5.842;2023-05-10T02:10:47;14.20;99.90
39021;DHT22;25188;51.958;5.842;2023-05-10T02:13:16;14.20;99.90
39021;DHT22;25188;51.958;5.842;2023-05-10T02:15:43;14.10;99.90
39021;DHT22;25188;51.958;5.842;2023-05-10T02:18:10;14.10;99.90
39021;DHT22;25188;51.958;5.842;2023-05-10T02:20:37;14.10;99.90
39021;DHT22;25188;51.958;5.842;2023-05-10T02:23:04;14.20;99.90
39021;DHT22;25188;51.958;5.842;2023-05-10T02:25:31;14.10;99.90
39021;DHT22;25188;51.958;5.842;2023-05-10T02:28:01;14.10;99.90
39021;DHT22;25188;51.958;5.842;2023-05-10T02:30:28;14.10;99.90
39021;DHT22;25188;51.958;5.842;2023-05-10T02:32:56;14.00;99.90
39021;DHT22;25188;51.958;5.842;2023-05-10T02:35:22;14.10;99.90
39021;DHT22;25188;51.958;5.842;2023-05-10T02:37:48;14.00;99.90
39021;DHT22;25188;51.958;5.842;2023-05-10T02:40:15;14.00;99.90
39021;DHT22;25188;51.958;5.842;2023-05-10T02:42:43;14.00;99.90
39021;DHT22;25188;51.958;5.842;2023-05-10T02:45:15;14.00;99.90
39021;DHT22;25188;51.958;5.842;2023-05-10T02:47:42;14.00;99.90
39021;DHT22;25188;51.958;5.842;2023-05-10T02:50:09;14.00;99.90
39021;DHT22;25188;51.958;5.842;2023-05-10T02:52:59;14.00;99.90
39021;DHT22;25188;51.958;5.842;2023-05-10T02:55:27;14.00;99.90
39021;DHT22;25188;51.958;5.842;2023-05-10T02:57:59;14.00;99.90
39021;DHT22;25188;51.958;5.842;2023-05-10T03:00:26;14.00;99.90
39021;DHT22;25188;51.958;5.842;2023-05-10T03:02:52;14.00;99.90
39021;DHT22;25188;51.958;5.842;2023-05-10T03:05:17;14.00;99.90
39021;DHT22;25188;51.958;5.842;2023-05-10T03:07:44;14.00;99.90
39021;DHT22;25188;51.958;5.842;2023-05-10T03:10:10;14.00;99.90
39021;DHT22;25188;51.958;5.842;2023-05-10T03:15:36;13.90;99.90
39021;DHT22;25188;51.958;5.842;2023-05-10T03:18:22;13.90;99.90
39021;DHT22;25188;51.958;5.842;2023-05-10T03:20:50;13.90;99.90
39021;DHT22;25188;51.958;5.842;2023-05-10T03:23:43;13.90;99.90
39021;DHT22;25188;51.958;5.842;2023-05-10T03:26:11;13.90;99.90
39021;DHT22;25188;51.958;5.842;2023-05-10T03:28:38;13.90;99.90
39021;DHT22;25188;51.958;5.842;2023-05-10T03:31:05;13.90;99.90
39021;DHT22;25188;51.958;5.842;2023-05-10T03:33:31;13.90;99.90
39021;DHT22;25188;51.958;5.842;2023-05-10T03:35:57;13.90;99.90
39021;DHT22;25188;51.958;5.842;2023-05-10T03:38:23;13.90;99.90
39021;DHT22;25188;51.958;5.842;2023-05-10T03:40:49;13.90;99.90
39021;DHT22;25188;51.958;5.842;2023-05-10T03:43:14;13.90;99.90
39021;DHT22;25188;51.958;5.842;2023-05-10T03:45:40;13.80;99.90
39021;DHT22;25188;51.958;5.842;2023-05-10T03:48:06;13.80;99.90
39021;DHT22;25188;51.958;5.842;2023-05-10T03:50:31;13.80;99.90
39021;DHT22;25188;51.958;5.842;2023-05-10T03:52:57;13.80;99.90
39021;DHT22;25188;51.958;5.842;2023-05-10T03:55:23;13.80;99.90
39021;DHT22;25188;51.958;5.842;2023-05-10T03:57:48;13.80;99.90
39021;DHT22;25188;51.958;5.842;2023-05-10T04:00:15;13.80;99.90
39021;DHT22;25188;51.958;5.842;2023-05-10T04:02:41;13.80;99.90
39021;DHT22;25188;51.958;5.842;2023-05-10T04:05:06;13.80;99.90
39021;DHT22;25188;51.958;5.842;2023-05-10T04:07:32;13.80;99.90
39021;DHT22;25188;51.958;5.842;2023-05-10T04:09:58;13.80;99.90
39021;DHT22;25188;51.958;5.842;2023-05-10T04:12:24;13.80;99.90
39021;DHT22;25188;51.958;5.842;2023-05-10T04:14:49;13.70;99.90
39021;DHT22;25188;51.958;5.842;2023-05-10T04:17:16;13.70;99.90
39021;DHT22;25188;51.958;5.842;2023-05-10T04:19:41;13.70;99.90
39021;DHT22;25188;51.958;5.842;2023-05-10T04:22:07;13.70;99.90
39021;DHT22;25188;51.958;5.842;2023-05-10T04:24:33;13.70;99.90
39021;DHT22;25188;51.958;5.842;2023-05-10T04:26:58;13.70;99.90
39021;DHT22;25188;51.958;5.842;2023-05-10T04:29:24;13.70;99.90
39021;DHT22;25188;51.958;5.842;2023-05-10T04:31:49;13.60;99.90
39021;DHT22;25188;51.958;5.842;2023-05-10T04:34:16;13.60;99.90
39021;DHT22;25188;51.958;5.842;2023-05-10T04:36:41;13.60;99.90
39021;DHT22;25188;51.958;5.842;2023-05-10T04:39:07;13.60;99.90
39021;DHT22;25188;51.958;5.842;2023-05-10T04:41:34;13.70;99.90
39021;DHT22;25188;51.958;5.842;2023-05-10T04:43:59;13.60;99.90
39021;DHT22;25188;51.958;5.842;2023-05-10T04:46:25;13.60;99.90
39021;DHT22;25188;51.958;5.842;2023-05-10T04:48:51;13.60;99.90
39021;DHT22;25188;51.958;5.842;2023-05-10T04:51:16;13.70;99.90
39021;DHT22;25188;51.958;5.842;2023-05-10T04:53:42;13.70;99.90
39021;DHT22;25188;51.958;5.842;2023-05-10T04:56:07;13.70;99.90
39021;DHT22;25188;51.958;5.842;2023-05-10T04:58:33;13.70;99.90
39021;DHT22;25188;51.958;5.842;2023-05-10T05:01:08;13.70;99.90
39021;DHT22;25188;51.958;5.842;2023-05-10T05:03:36;13.70;99.90
39021;DHT22;25188;51.958;5.842;2023-05-10T05:06:02;13.70;99.90
39021;DHT22;25188;51.958;5.842;2023-05-10T05:08:28;13.80;99.90
39021;DHT22;25188;51.958;5.842;2023-05-10T05:10:53;13.80;99.90
39021;DHT22;25188;51.958;5.842;2023-05-10T05:13:19;13.80;99.90
39021;DHT22;25188;51.958;5.842;2023-05-10T05:15:45;13.80;99.90
39021;DHT22;25188;51.958;5.842;2023-05-10T05:18:11;13.80;99.90
39021;DHT22;25188;51.958;5.842;2023-05-10T05:20:36;13.80;99.90
39021;DHT22;25188;51.958;5.842;2023-05-10T05:23:02;13.80;99.90
39021;DHT22;25188;51.958;5.842;2023-05-10T05:25:28;13.80;99.90
39021;DHT22;25188;51.958;5.842;2023-05-10T05:27:53;13.80;99.90
39021;DHT22;25188;51.958;5.842;2023-05-10T05:30:19;13.90;99.90
39021;DHT22;25188;51.958;5.842;2023-05-10T05:32:45;13.90;99.90
39021;DHT22;25188;51.958;5.842;2023-05-10T05:35:12;13.90;99.90
39021;DHT22;25188;51.958;5.842;2023-05-10T05:37:38;13.90;99.90
39021;DHT22;25188;51.958;5.842;2023-05-10T05:40:04;13.90;99.90
39021;DHT22;25188;51.958;5.842;2023-05-10T05:42:31;13.90;99.90
39021;DHT22;25188;51.958;5.842;2023-05-10T05:44:56;14.00;99.90
39021;DHT22;25188;51.958;5.842;2023-05-10T05:47:22;14.00;99.90
39021;DHT22;25188;51.958;5.842;2023-05-10T05:49:48;14.00;99.90
39021;DHT22;25188;51.958;5.842;2023-05-10T05:52:13;14.00;99.90
39021;DHT22;25188;51.958;5.842;2023-05-10T05:54:39;14.00;99.90
39021;DHT22;25188;51.958;5.842;2023-05-10T05:57:05;14.00;99.90
39021;DHT22;25188;51.958;5.842;2023-05-10T05:59:31;14.00;99.90
39021;DHT22;25188;51.958;5.842;2023-05-10T06:01:56;14.00;99.90
39021;DHT22;25188;51.958;5.842;2023-05-10T06:04:22;14.10;99.90
39021;DHT22;25188;51.958;5.842;2023-05-10T06:06:48;14.10;99.90
39021;DHT22;25188;51.958;5.842;2023-05-10T06:09:13;14.10;99.90
39021;DHT22;25188;51.958;5.842;2023-05-10T06:11:39;14.10;99.90
39021;DHT22;25188;51.958;5.842;2023-05-10T06:14:05;14.20;99.90
39021;DHT22;25188;51.958;5.842;2023-05-10T06:16:32;14.20;99.90
39021;DHT22;25188;51.958;5.842;2023-05-10T06:18:58;14.20;99.90
39021;DHT22;25188;51.958;5.842;2023-05-10T06:21:23;14.20;99.90
39021;DHT22;25188;51.958;5.842;2023-05-10T06:23:49;14.30;99.90
39021;DHT22;25188;51.958;5.842;2023-05-10T06:26:15;14.20;99.90
39021;DHT22;25188;51.958;5.842;2023-05-10T06:28:40;14.20;99.90
39021;DHT22;25188;51.958;5.842;2023-05-10T06:31:06;14.20;99.90
39021;DHT22;25188;51.958;5.842;2023-05-10T06:33:33;14.20;99.90
39021;DHT22;25188;51.958;5.842;2023-05-10T06:35:58;14.20;99.90
39021;DHT22;25188;51.958;5.842;2023-05-10T06:38:24;14.30;99.90
39021;DHT22;25188;51.958;5.842;2023-05-10T06:40:50;14.30;99.90
39021;DHT22;25188;51.958;5.842;2023-05-10T06:43:16;14.30;99.90
39021;DHT22;25188;51.958;5.842;2023-05-10T06:45:42;14.30;99.90
39021;DHT22;25188;51.958;5.842;2023-05-10T06:48:07;14.20;99.90
39021;DHT22;25188;51.958;5.842;2023-05-10T06:50:33;14.30;99.90
39021;DHT22;25188;51.958;5.842;2023-05-10T06:52:59;14.20;99.90
39021;DHT22;25188;51.958;5.842;2023-05-10T06:55:25;14.20;99.90
39021;DHT22;25188;51.958;5.842;2023-05-10T06:57:51;14.30;99.90
39021;DHT22;25188;51.958;5.842;2023-05-10T07:00:18;14.20;99.90
39021;DHT22;25188;51.958;5.842;2023-05-10T07:02:43;14.20;99.90
39021;DHT22;25188;51.958;5.842;2023-05-10T07:05:09;14.30;99.90
39021;DHT22;25188;51.958;5.842;2023-05-10T07:07:35;14.30;99.90
39021;DHT22;25188;51.958;5.842;2023-05-10T07:10:01;14.30;99.90
39021;DHT22;25188;51.958;5.842;2023-05-10T07:12:27;14.30;99.90
39021;DHT22;25188;51.958;5.842;2023-05-10T07:14:52;14.30;99.90
39021;DHT22;25188;51.958;5.842;2023-05-10T07:17:18;14.30;99.90
39021;DHT22;25188;51.958;5.842;2023-05-10T07:19:44;14.30;99.90
39021;DHT22;25188;51.958;5.842;2023-05-10T07:22:09;14.30;99.90
39021;DHT22;25188;51.958;5.842;2023-05-10T07:24:35;14.30;99.90
39021;DHT22;25188;51.958;5.842;2023-05-10T07:27:01;14.30;99.90
39021;DHT22;25188;51.958;5.842;2023-05-10T07:29:26;14.30;99.90
39021;DHT22;25188;51.958;5.842;2023-05-10T07:31:52;14.30;99.90
39021;DHT22;25188;51.958;5.842;2023-05-10T07:34:18;14.40;99.90
39021;DHT22;25188;51.958;5.842;2023-05-10T07:36:44;14.50;99.90
39021;DHT22;25188;51.958;5.842;2023-05-10T07:39:09;14.50;99.90
39021;DHT22;25188;51.958;5.842;2023-05-10T07:41:35;14.60;99.90
39021;DHT22;25188;51.958;5.842;2023-05-10T07:44:03;14.60;99.90
39021;DHT22;25188;51.958;5.842;2023-05-10T07:46:29;14.60;99.90
39021;DHT22;25188;51.958;5.842;2023-05-10T07:48:54;14.70;99.90
39021;DHT22;25188;51.958;5.842;2023-05-10T07:51:20;14.80;99.90
39021;DHT22;25188;51.958;5.842;2023-05-10T07:53:46;14.80;99.90
39021;DHT22;25188;51.958;5.842;2023-05-10T07:56:23;14.90;99.90
39021;DHT22;25188;51.958;5.842;2023-05-10T07:58:50;15.00;99.90
39021;DHT22;25188;51.958;5.842;2023-05-10T08:01:16;15.10;99.90
39021;DHT22;25188;51.958;5.842;2023-05-10T08:03:41;15.10;99.90
39021;DHT22;25188;51.958;5.842;2023-05-10T08:06:07;15.20;99.90
39021;DHT22;25188;51.958;5.842;2023-05-10T08:08:33;15.20;99.90
39021;DHT22;25188;51.958;5.842;2023-05-10T08:10:58;15.20;99.90
39021;DHT22;25188;51.958;5.842;2023-05-10T08:13:24;15.30;99.90
39021;DHT22;25188;51.958;5.842;2023-05-10T08:15:49;15.20;99.90
39021;DHT22;25188;51.958;5.842;2023-05-10T08:18:18;15.30;99.90
39021;DHT22;25188;51.958;5.842;2023-05-10T08:20:44;15.30;99.90
39021;DHT22;25188;51.958;5.842;2023-05-10T08:23:09;15.40;99.90
39021;DHT22;25188;51.958;5.842;2023-05-10T08:25:35;15.50;99.90
39021;DHT22;25188;51.958;5.842;2023-05-10T08:28:00;15.50;99.90
39021;DHT22;25188;51.958;5.842;2023-05-10T08:30:26;15.50;99.90
39021;DHT22;25188;51.958;5.842;2023-05-10T08:32:52;15.60;99.90
39021;DHT22;25188;51.958;5.842;2023-05-10T08:35:17;15.50;99.90
39021;DHT22;25188;51.958;5.842;2023-05-10T08:37:43;15.50;99.90
39021;DHT22;25188;51.958;5.842;2023-05-10T08:40:11;15.50;99.90
39021;DHT22;25188;51.958;5.842;2023-05-10T08:42:39;15.50;99.90
39021;DHT22;25188;51.958;5.842;2023-05-10T08:45:07;15.40;99.90
39021;DHT22;25188;51.958;5.842;2023-05-10T08:47:36;15.50;99.90
39021;DHT22;25188;51.958;5.842;2023-05-10T08:50:03;15.40;99.90
39021;DHT22;25188;51.958;5.842;2023-05-10T08:52:30;15.40;99.90
39021;DHT22;25188;51.958;5.842;2023-05-10T08:54:58;15.40;99.90
39021;DHT22;25188;51.958;5.842;2023-05-10T08:57:24;15.50;99.90
39021;DHT22;25188;51.958;5.842;2023-05-10T08:59:50;15.50;99.90
39021;DHT22;25188;51.958;5.842;2023-05-10T09:02:16;15.70;99.90
39021;DHT22;25188;51.958;5.842;2023-05-10T09:04:43;15.80;99.90
39021;DHT22;25188;51.958;5.842;2023-05-10T09:07:10;15.80;99.90
39021;DHT22;25188;51.958;5.842;2023-05-10T09:09:36;15.90;99.90
39021;DHT22;25188;51.958;5.842;2023-05-10T09:12:02;15.90;99.90
39021;DHT22;25188;51.958;5.842;2023-05-10T09:14:29;15.90;99.90
39021;DHT22;25188;51.958;5.842;2023-05-10T09:16:56;15.90;99.90
39021;DHT22;25188;51.958;5.842;2023-05-10T09:19:22;15.90;99.90
39021;DHT22;25188;51.958;5.842;2023-05-10T09:21:48;15.90;99.90
39021;DHT22;25188;51.958;5.842;2023-05-10T09:24:15;16.00;99.90
39021;DHT22;25188;51.958;5.842;2023-05-10T09:26:48;16.00;99.90
39021;DHT22;25188;51.958;5.842;2023-05-10T09:29:14;16.10;99.90
39021;DHT22;25188;51.958;5.842;2023-05-10T09:31:47;16.20;99.70
39021;DHT22;25188;51.958;5.842;2023-05-10T09:34:34;16.30;99.20
39021;DHT22;25188;51.958;5.842;2023-05-10T09:37:02;16.40;99.10
39021;DHT22;25188;51.958;5.842;2023-05-10T09:39:35;16.50;99.10
39021;DHT22;25188;51.958;5.842;2023-05-10T09:42:03;16.60;99.30
39021;DHT22;25188;51.958;5.842;2023-05-10T09:44:30;16.70;99.00
39021;DHT22;25188;51.958;5.842;2023-05-10T09:46:56;16.70;98.30
39021;DHT22;25188;51.958;5.842;2023-05-10T09:49:22;16.70;97.50
39021;DHT22;25188;51.958;5.842;2023-05-10T09:51:57;16.70;97.10
39021;DHT22;25188;51.958;5.842;2023-05-10T09:54:24;16.70;96.80
39021;DHT22;25188;51.958;5.842;2023-05-10T09:56:50;16.70;96.60
39021;DHT22;25188;51.958;5.842;2023-05-10T09:59:16;16.60;96.20
39021;DHT22;25188;51.958;5.842;2023-05-10T10:01:42;16.60;96.00
39021;DHT22;25188;51.958;5.842;2023-05-10T10:04:14;16.60;95.60
39021;DHT22;25188;51.958;5.842;2023-05-10T10:06:40;16.60;95.50
39021;DHT22;25188;51.958;5.842;2023-05-10T10:09:07;16.60;95.70
39021;DHT22;25188;51.958;5.842;2023-05-10T10:11:37;16.70;95.80
39021;DHT22;25188;51.958;5.842;2023-05-10T10:14:03;16.70;95.10
39021;DHT22;25188;51.958;5.842;2023-05-10T10:16:29;16.70;95.10
39021;DHT22;25188;51.958;5.842;2023-05-10T10:18:56;16.80;95.10
39021;DHT22;25188;51.958;5.842;2023-05-10T10:21:23;16.80;94.90
39021;DHT22;25188;51.958;5.842;2023-05-10T10:23:49;16.80;95.00
39021;DHT22;25188;51.958;5.842;2023-05-10T10:26:17;16.90;94.90
39021;DHT22;25188;51.958;5.842;2023-05-10T10:32:03;17.00;94.80
39021;DHT22;25188;51.958;5.842;2023-05-10T10:34:33;17.10;94.70
39021;DHT22;25188;51.958;5.842;2023-05-10T10:37:04;17.00;94.50
39021;DHT22;25188;51.958;5.842;2023-05-10T10:39:30;17.00;94.70
39021;DHT22;25188;51.958;5.842;2023-05-10T10:41:57;17.00;94.80
39021;DHT22;25188;51.958;5.842;2023-05-10T10:44:41;17.00;94.80
39021;DHT22;25188;51.958;5.842;2023-05-10T10:50:05;17.00;94.90
39021;DHT22;25188;51.958;5.842;2023-05-10T10:52:33;17.10;95.00
39021;DHT22;25188;51.958;5.842;2023-05-10T10:55:09;17.20;95.10
39021;DHT22;25188;51.958;5.842;2023-05-10T11:00:22;17.60;95.00
39021;DHT22;25188;51.958;5.842;2023-05-10T11:02:59;17.70;94.80
39021;DHT22;25188;51.958;5.842;2023-05-10T11:07:54;17.70;93.80
39021;DHT22;25188;51.958;5.842;2023-05-10T11:10:23;17.70;93.60
39021;DHT22;25188;51.958;5.842;2023-05-10T11:15:19;17.80;93.70
39021;DHT22;25188;51.958;5.842;2023-05-10T11:17:47;17.80;93.80
39021;DHT22;25188;51.958;5.842;2023-05-10T11:20:17;17.90;93.60
39021;DHT22;25188;51.958;5.842;2023-05-10T11:22:54;17.90;93.40
39021;DHT22;25188;51.958;5.842;2023-05-10T11:25:26;18.00;93.20
39021;DHT22;25188;51.958;5.842;2023-05-10T11:27:52;18.10;93.30
39021;DHT22;25188;51.958;5.842;2023-05-10T11:30:18;18.30;93.30
39021;DHT22;25188;51.958;5.842;2023-05-10T11:32:44;18.40;92.80
39021;DHT22;25188;51.958;5.842;2023-05-10T11:35:11;18.50;92.30
39021;DHT22;25188;51.958;5.842;2023-05-10T11:37:41;18.40;91.70
39021;DHT22;25188;51.958;5.842;2023-05-10T11:40:09;18.30;91.60
39021;DHT22;25188;51.958;5.842;2023-05-10T11:42:38;18.30;91.30
39021;DHT22;25188;51.958;5.842;2023-05-10T11:45:05;18.20;91.30
39021;DHT22;25188;51.958;5.842;2023-05-10T11:47:31;18.20;91.50
39021;DHT22;25188;51.958;5.842;2023-05-10T11:49:57;18.30;91.50
39021;DHT22;25188;51.958;5.842;2023-05-10T11:52:23;18.40;90.90
39021;DHT22;25188;51.958;5.842;2023-05-10T11:54:53;18.50;90.80
39021;DHT22;25188;51.958;5.842;2023-05-10T11:57:20;18.60;90.90
39021;DHT22;25188;51.958;5.842;2023-05-10T11:59:46;18.80;90.60
39021;DHT22;25188;51.958;5.842;2023-05-10T12:02:15;18.90;90.40
39021;DHT22;25188;51.958;5.842;2023-05-10T12:04:41;19.20;90.10
39021;DHT22;25188;51.958;5.842;2023-05-10T12:07:07;19.20;89.00
39021;DHT22;25188;51.958;5.842;2023-05-10T12:09:33;19.30;88.30
39021;DHT22;25188;51.958;5.842;2023-05-10T12:11:58;19.40;87.70
39021;DHT22;25188;51.958;5.842;2023-05-10T12:14:24;19.50;87.00
39021;DHT22;25188;51.958;5.842;2023-05-10T12:16:50;19.60;86.60
39021;DHT22;25188;51.958;5.842;2023-05-10T12:19:19;19.70;86.10
39021;DHT22;25188;51.958;5.842;2023-05-10T12:21:45;19.70;85.10
39021;DHT22;25188;51.958;5.842;2023-05-10T12:24:12;19.70;84.40
39021;DHT22;25188;51.958;5.842;2023-05-10T12:26:42;19.70;84.00
39021;DHT22;25188;51.958;5.842;2023-05-10T12:29:19;19.70;83.60
39021;DHT22;25188;51.958;5.842;2023-05-10T12:31:57;19.80;83.40
39021;DHT22;25188;51.958;5.842;2023-05-10T12:34:29;19.80;83.00
39021;DHT22;25188;51.958;5.842;2023-05-10T12:36:55;19.80;82.70
39021;DHT22;25188;51.958;5.842;2023-05-10T12:39:21;19.80;81.90
39021;DHT22;25188;51.958;5.842;2023-05-10T12:41:47;19.80;81.50
39021;DHT22;25188;51.958;5.842;2023-05-10T12:44:13;19.80;81.80
39021;DHT22;25188;51.958;5.842;2023-05-10T12:46:38;19.80;81.10
39021;DHT22;25188;51.958;5.842;2023-05-10T12:49:04;19.80;80.80
39021;DHT22;25188;51.958;5.842;2023-05-10T12:51:30;19.90;81.00
39021;DHT22;25188;51.958;5.842;2023-05-10T12:53:56;19.90;80.00
39021;DHT22;25188;51.958;5.842;2023-05-10T12:56:22;19.90;79.80
39021;DHT22;25188;51.958;5.842;2023-05-10T12:58:47;19.90;79.90
39021;DHT22;25188;51.958;5.842;2023-05-10T13:01:16;20.00;80.00
39021;DHT22;25188;51.958;5.842;2023-05-10T13:03:41;20.00;79.60
39021;DHT22;25188;51.958;5.842;2023-05-10T13:06:08;20.10;79.60
39021;DHT22;25188;51.958;5.842;2023-05-10T13:08:34;20.20;80.00
39021;DHT22;25188;51.958;5.842;2023-05-10T13:11:00;20.40;80.00
39021;DHT22;25188;51.958;5.842;2023-05-10T13:13:26;20.50;79.10
39021;DHT22;25188;51.958;5.842;2023-05-10T13:15:51;20.50;78.70
39021;DHT22;25188;51.958;5.842;2023-05-10T13:18:17;20.60;78.40
39021;DHT22;25188;51.958;5.842;2023-05-10T13:20:43;20.60;77.50
39021;DHT22;25188;51.958;5.842;2023-05-10T13:23:09;20.60;77.00
39021;DHT22;25188;51.958;5.842;2023-05-10T13:25:35;20.50;76.60
39021;DHT22;25188;51.958;5.842;2023-05-10T13:28:01;20.40;76.80
39021;DHT22;25188;51.958;5.842;2023-05-10T13:30:27;20.30;76.70
39021;DHT22;25188;51.958;5.842;2023-05-10T13:32:54;20.20;76.80
39021;DHT22;25188;51.958;5.842;2023-05-10T13:35:20;20.00;77.80
39021;DHT22;25188;51.958;5.842;2023-05-10T13:37:45;19.80;78.70
39021;DHT22;25188;51.958;5.842;2023-05-10T13:40:11;19.60;79.60
39021;DHT22;25188;51.958;5.842;2023-05-10T13:42:40;19.40;80.30
39021;DHT22;25188;51.958;5.842;2023-05-10T13:45:06;19.20;81.10
39021;DHT22;25188;51.958;5.842;2023-05-10T13:47:32;18.90;81.70
39021;DHT22;25188;51.958;5.842;2023-05-10T13:49:58;18.60;82.40
39021;DHT22;25188;51.958;5.842;2023-05-10T13:52:23;18.40;84.10
39021;DHT22;25188;51.958;5.842;2023-05-10T13:54:49;18.30;85.10
39021;DHT22;25188;51.958;5.842;2023-05-10T13:57:17;18.20;86.10
39021;DHT22;25188;51.958;5.842;2023-05-10T13:59:43;18.10;87.30
39021;DHT22;25188;51.958;5.842;2023-05-10T14:02:08;18.10;87.70
39021;DHT22;25188;51.958;5.842;2023-05-10T14:04:34;18.10;87.40
39021;DHT22;25188;51.958;5.842;2023-05-10T14:07:00;17.90;87.80
39021;DHT22;25188;51.958;5.842;2023-05-10T14:09:26;17.90;88.60
39021;DHT22;25188;51.958;5.842;2023-05-10T14:11:52;17.70;89.20
39021;DHT22;25188;51.958;5.842;2023-05-10T14:14:17;17.70;89.90
39021;DHT22;25188;51.958;5.842;2023-05-10T14:16:44;17.60;90.30
39021;DHT22;25188;51.958;5.842;2023-05-10T14:19:10;17.50;90.40
39021;DHT22;25188;51.958;5.842;2023-05-10T14:21:36;17.50;90.70
39021;DHT22;25188;51.958;5.842;2023-05-10T14:24:02;17.50;91.00
39021;DHT22;25188;51.958;5.842;2023-05-10T14:26:28;17.50;91.10
39021;DHT22;25188;51.958;5.842;2023-05-10T14:28:54;17.50;91.40
39021;DHT22;25188;51.958;5.842;2023-05-10T14:31:19;17.50;91.90
39021;DHT22;25188;51.958;5.842;2023-05-10T14:33:49;17.50;91.90
39021;DHT22;25188;51.958;5.842;2023-05-10T14:36:15;17.50;91.90
39021;DHT22;25188;51.958;5.842;2023-05-10T14:38:41;17.40;91.90
39021;DHT22;25188;51.958;5.842;2023-05-10T14:41:06;17.40;91.90
39021;DHT22;25188;51.958;5.842;2023-05-10T14:43:32;17.40;91.80
39021;DHT22;25188;51.958;5.842;2023-05-10T14:45:58;17.40;91.80
39021;DHT22;25188;51.958;5.842;2023-05-10T14:48:23;17.40;91.80
39021;DHT22;25188;51.958;5.842;2023-05-10T14:50:49;17.30;91.90
39021;DHT22;25188;51.958;5.842;2023-05-10T14:53:15;17.40;92.10
39021;DHT22;25188;51.958;5.842;2023-05-10T14:55:41;17.60;92.00
39021;DHT22;25188;51.958;5.842;2023-05-10T14:58:07;17.60;91.90
39021;DHT22;25188;51.958;5.842;2023-05-10T15:00:32;17.70;91.60
39021;DHT22;25188;51.958;5.842;2023-05-10T15:02:58;17.80;91.50
39021;DHT22;25188;51.958;5.842;2023-05-10T15:05:24;17.70;91.20
39021;DHT22;25188;51.958;5.842;2023-05-10T15:07:49;17.70;91.20
39021;DHT22;25188;51.958;5.842;2023-05-10T15:10:15;17.60;91.20
39021;DHT22;25188;51.958;5.842;2023-05-10T15:12:41;17.60;91.30
39021;DHT22;25188;51.958;5.842;2023-05-10T15:15:07;17.50;91.20
39021;DHT22;25188;51.958;5.842;2023-05-10T15:17:33;17.40;91.40
39021;DHT22;25188;51.958;5.842;2023-05-10T15:19:59;17.40;91.70
39021;DHT22;25188;51.958;5.842;2023-05-10T15:22:25;17.30;91.40
39021;DHT22;25188;51.958;5.842;2023-05-10T15:24:51;17.30;91.60
39021;DHT22;25188;51.958;5.842;2023-05-10T15:27:16;17.20;91.70
39021;DHT22;25188;51.958;5.842;2023-05-10T15:29:42;17.30;91.70
39021;DHT22;25188;51.958;5.842;2023-05-10T15:32:07;17.20;91.80
39021;DHT22;25188;51.958;5.842;2023-05-10T15:34:33;17.20;91.70
39021;DHT22;25188;51.958;5.842;2023-05-10T15:36:59;17.30;91.70
39021;DHT22;25188;51.958;5.842;2023-05-10T15:39:24;17.30;91.80
39021;DHT22;25188;51.958;5.842;2023-05-10T15:41:51;17.30;91.50
39021;DHT22;25188;51.958;5.842;2023-05-10T15:44:16;17.40;91.40
39021;DHT22;25188;51.958;5.842;2023-05-10T15:46:43;17.30;91.40
39021;DHT22;25188;51.958;5.842;2023-05-10T15:49:09;17.40;91.50
39021;DHT22;25188;51.958;5.842;2023-05-10T15:51:34;17.40;91.50
39021;DHT22;25188;51.958;5.842;2023-05-10T15:54:00;17.40;91.50